sensor_id;sensor_type;location;lat;lon;timestamp;pressure;altitude;pressure_sealevel;temperature;humidity
77124;BME280;66079;47.646;19.130;2023-05-29T00:02:14;100375.13;;;15.58;59.41
77124;BME280;66079;47.646;19.130;2023-05-29T00:05:17;100359.88;;;15.55;59.21
77124;BME280;66079;47.646;19.130;2023-05-29T00:08:20;100350.44;;;15.54;59.39
77124;BME280;66079;47.646;19.130;2023-05-29T00:11:22;100359.97;;;15.60;59.03
77124;BME280;66079;47.646;19.130;2023-05-29T00:14:25;100367.38;;;15.63;58.89
77124;BME280;66079;47.646;19.130;2023-05-29T00:17:28;100339.28;;;15.47;58.93
77124;BME280;66079;47.646;19.130;2023-05-29T00:20:31;100340.56;;;15.45;59.70
77124;BME280;66079;47.646;19.130;2023-05-29T00:23:36;100345.72;;;15.28;60.04
77124;BME280;66079;47.646;19.130;2023-05-29T00:26:39;100366.53;;;15.46;60.19
77124;BME280;66079;47.646;19.130;2023-05-29T00:29:41;100367.69;;;15.39;60.26
77124;BME280;66079;47.646;19.130;2023-05-29T00:32:44;100366.53;;;15.35;60.30
77124;BME280;66079;47.646;19.130;2023-05-29T00:35:49;100357.66;;;15.24;60.44
77124;BME280;66079;47.646;19.130;2023-05-29T00:38:51;100369.53;;;15.27;60.80
77124;BME280;66079;47.646;19.130;2023-05-29T00:41:56;100357.22;;;15.16;60.91
77124;BME280;66079;47.646;19.130;2023-05-29T00:44:59;100358.50;;;15.13;61.37
77124;BME280;66079;47.646;19.130;2023-05-29T00:48:05;100364.47;;;14.86;63.25
77124;BME280;66079;47.646;19.130;2023-05-29T00:51:10;100369.94;;;14.73;63.82
77124;BME280;66079;47.646;19.130;2023-05-29T00:54:17;100368.19;;;14.66;64.70
77124;BME280;66079;47.646;19.130;2023-05-29T00:57:23;100360.56;;;14.42;65.79
77124;BME280;66079;47.646;19.130;2023-05-29T01:00:26;100363.19;;;14.42;66.23
77124;BME280;66079;47.646;19.130;2023-05-29T01:03:29;100372.19;;;14.46;66.31
77124;BME280;66079;47.646;19.130;2023-05-29T01:06:35;100355.91;;;14.44;66.02
77124;BME280;66079;47.646;19.130;2023-05-29T01:09:38;100351.03;;;14.47;66.96
77124;BME280;66079;47.646;19.130;2023-05-29T01:12:47;100360.13;;;14.45;67.21
77124;BME280;66079;47.646;19.130;2023-05-29T01:26:11;100350.22;;;14.47;65.90
77124;BME280;66079;47.646;19.130;2023-05-29T01:29:23;100334.31;;;14.37;65.88
77124;BME280;66079;47.646;19.130;2023-05-29T01:32:29;100348.75;;;14.39;66.06
77124;BME280;66079;47.646;19.130;2023-05-29T01:35:32;100349.22;;;14.36;66.42
77124;BME280;66079;47.646;19.130;2023-05-29T01:38:35;100342.03;;;14.32;66.49
77124;BME280;66079;47.646;19.130;2023-05-29T01:41:38;100347.25;;;14.32;66.88
77124;BME280;66079;47.646;19.130;2023-05-29T01:44:41;100331.31;;;14.22;66.94
77124;BME280;66079;47.646;19.130;2023-05-29T01:47:45;100347.38;;;14.25;66.89
77124;BME280;66079;47.646;19.130;2023-05-29T01:50:48;100339.72;;;14.24;66.89
77124;BME280;66079;47.646;19.130;2023-05-29T01:53:51;100346.31;;;14.15;68.06
77124;BME280;66079;47.646;19.130;2023-05-29T01:56:54;100342.09;;;14.14;67.74
77124;BME280;66079;47.646;19.130;2023-05-29T01:59:57;100326.72;;;14.06;67.87
77124;BME280;66079;47.646;19.130;2023-05-29T02:03:00;100327.66;;;14.11;67.59
77124;BME280;66079;47.646;19.130;2023-05-29T02:06:03;100340.75;;;14.23;67.22
77124;BME280;66079;47.646;19.130;2023-05-29T02:09:05;100331.09;;;14.23;67.05
77124;BME280;66079;47.646;19.130;2023-05-29T02:12:09;100333.81;;;14.17;67.37
77124;BME280;66079;47.646;19.130;2023-05-29T02:15:11;100331.97;;;14.17;67.51
77124;BME280;66079;47.646;19.130;2023-05-29T02:18:15;100330.97;;;14.18;67.90
77124;BME280;66079;47.646;19.130;2023-05-29T02:21:19;100317.06;;;13.95;68.26
77124;BME280;66079;47.646;19.130;2023-05-29T02:24:22;100332.16;;;13.93;68.87
77124;BME280;66079;47.646;19.130;2023-05-29T02:27:25;100316.66;;;13.80;68.98
77124;BME280;66079;47.646;19.130;2023-05-29T02:30:28;100318.81;;;13.71;69.26
77124;BME280;66079;47.646;19.130;2023-05-29T02:33:31;100326.13;;;13.81;68.76
77124;BME280;66079;47.646;19.130;2023-05-29T02:36:33;100318.72;;;13.78;68.50
77124;BME280;66079;47.646;19.130;2023-05-29T02:39:39;100321.66;;;13.81;68.35
77124;BME280;66079;47.646;19.130;2023-05-29T02:42:42;100331.47;;;13.86;68.39
77124;BME280;66079;47.646;19.130;2023-05-29T02:45:45;100304.75;;;13.72;68.48
77124;BME280;66079;47.646;19.130;2023-05-29T02:48:47;100322.03;;;13.85;69.06
77124;BME280;66079;47.646;19.130;2023-05-29T02:51:51;100321.22;;;13.73;69.28
77124;BME280;66079;47.646;19.130;2023-05-29T02:54:58;100330.78;;;13.79;70.07
77124;BME280;66079;47.646;19.130;2023-05-29T02:58:01;100316.00;;;13.73;69.97
77124;BME280;66079;47.646;19.130;2023-05-29T03:01:04;100309.16;;;13.72;69.77
77124;BME280;66079;47.646;19.130;2023-05-29T03:04:07;100318.03;;;13.71;70.53
77124;BME280;66079;47.646;19.130;2023-05-29T03:07:10;100304.34;;;13.57;70.49
77124;BME280;66079;47.646;19.130;2023-05-29T03:10:12;100337.81;;;13.78;70.15
77124;BME280;66079;47.646;19.130;2023-05-29T03:13:19;100338.03;;;13.77;70.34
77124;BME280;66079;47.646;19.130;2023-05-29T03:16:29;100325.28;;;13.69;70.91
77124;BME280;66079;47.646;19.130;2023-05-29T03:19:32;100332.22;;;13.75;71.19
77124;BME280;66079;47.646;19.130;2023-05-29T03:22:35;100314.84;;;13.69;71.32
77124;BME280;66079;47.646;19.130;2023-05-29T03:25:38;100323.59;;;13.74;71.49
77124;BME280;66079;47.646;19.130;2023-05-29T03:28:41;100331.03;;;13.89;70.53
77124;BME280;66079;47.646;19.130;2023-05-29T03:31:45;100324.53;;;13.91;70.52
77124;BME280;66079;47.646;19.130;2023-05-29T03:34:54;100317.97;;;13.89;70.56
77124;BME280;66079;47.646;19.130;2023-05-29T03:37:58;100324.53;;;13.91;70.23
77124;BME280;66079;47.646;19.130;2023-05-29T03:41:00;100339.66;;;14.01;70.00
77124;BME280;66079;47.646;19.130;2023-05-29T03:44:03;100348.66;;;14.05;70.01
77124;BME280;66079;47.646;19.130;2023-05-29T03:47:06;100329.22;;;14.01;69.86
77124;BME280;66079;47.646;19.130;2023-05-29T03:50:11;100339.38;;;14.09;69.53
77124;BME280;66079;47.646;19.130;2023-05-29T03:53:18;100321.97;;;14.03;69.31
77124;BME280;66079;47.646;19.130;2023-05-29T03:56:21;100344.09;;;14.30;68.75
77124;BME280;66079;47.646;19.130;2023-05-29T03:59:25;100347.50;;;14.30;68.24
77124;BME280;66079;47.646;19.130;2023-05-29T04:02:28;100351.50;;;14.44;68.69
77124;BME280;66079;47.646;19.130;2023-05-29T04:05:31;100357.50;;;14.45;68.43
77124;BME280;66079;47.646;19.130;2023-05-29T04:08:34;100343.41;;;14.46;68.51
77124;BME280;66079;47.646;19.130;2023-05-29T04:11:37;100345.13;;;14.52;68.31
77124;BME280;66079;47.646;19.130;2023-05-29T04:14:41;100344.88;;;14.65;68.01
77124;BME280;66079;47.646;19.130;2023-05-29T04:17:44;100361.28;;;14.84;67.73
77124;BME280;66079;47.646;19.130;2023-05-29T04:20:47;100358.19;;;14.98;67.00
77124;BME280;66079;47.646;19.130;2023-05-29T04:23:50;100358.63;;;15.07;66.98
77124;BME280;66079;47.646;19.130;2023-05-29T04:26:52;100348.97;;;15.07;66.64
77124;BME280;66079;47.646;19.130;2023-05-29T04:29:55;100355.66;;;15.15;66.14
77124;BME280;66079;47.646;19.130;2023-05-29T04:32:58;100370.41;;;15.44;65.58
77124;BME280;66079;47.646;19.130;2023-05-29T04:36:03;100354.78;;;15.49;65.49
77124;BME280;66079;47.646;19.130;2023-05-29T04:39:07;100358.59;;;15.69;63.79
77124;BME280;66079;47.646;19.130;2023-05-29T04:42:10;100372.03;;;15.89;63.27
77124;BME280;66079;47.646;19.130;2023-05-29T04:45:13;100382.25;;;16.03;63.04
77124;BME280;66079;47.646;19.130;2023-05-29T04:48:16;100375.09;;;16.15;62.36
77124;BME280;66079;47.646;19.130;2023-05-29T04:51:19;100354.69;;;16.17;62.68
77124;BME280;66079;47.646;19.130;2023-05-29T04:54:23;100370.19;;;16.35;62.15
77124;BME280;66079;47.646;19.130;2023-05-29T04:57:29;100359.28;;;16.43;61.30
77124;BME280;66079;47.646;19.130;2023-05-29T05:00:31;100358.06;;;16.45;61.41
77124;BME280;66079;47.646;19.130;2023-05-29T05:03:34;100370.88;;;16.58;61.16
77124;BME280;66079;47.646;19.130;2023-05-29T05:06:38;100375.13;;;16.64;61.36
77124;BME280;66079;47.646;19.130;2023-05-29T05:09:42;100374.16;;;16.70;61.39
77124;BME280;66079;47.646;19.130;2023-05-29T05:12:51;100372.00;;;16.84;61.84
77124;BME280;66079;47.646;19.130;2023-05-29T05:15:55;100370.00;;;16.91;61.84
77124;BME280;66079;47.646;19.130;2023-05-29T05:18:58;100367.59;;;17.06;61.68
77124;BME280;66079;47.646;19.130;2023-05-29T05:22:01;100381.63;;;17.16;61.08
77124;BME280;66079;47.646;19.130;2023-05-29T05:25:04;100364.59;;;17.19;59.96
77124;BME280;66079;47.646;19.130;2023-05-29T05:28:08;100400.59;;;17.40;59.91
77124;BME280;66079;47.646;19.130;2023-05-29T05:31:10;100393.97;;;17.38;59.83
77124;BME280;66079;47.646;19.130;2023-05-29T05:34:14;100384.41;;;17.48;59.79
77124;BME280;66079;47.646;19.130;2023-05-29T05:37:18;100390.69;;;17.69;59.50
77124;BME280;66079;47.646;19.130;2023-05-29T05:40:21;100389.50;;;17.81;59.02
77124;BME280;66079;47.646;19.130;2023-05-29T05:43:30;100380.97;;;17.96;59.17
77124;BME280;66079;47.646;19.130;2023-05-29T05:47:11;100371.88;;;18.08;58.42
77124;BME280;66079;47.646;19.130;2023-05-29T05:50:15;100373.06;;;18.22;56.86
77124;BME280;66079;47.646;19.130;2023-05-29T05:53:19;100381.03;;;18.32;57.37
77124;BME280;66079;47.646;19.130;2023-05-29T05:56:23;100373.47;;;18.41;57.89
77124;BME280;66079;47.646;19.130;2023-05-29T05:59:25;100386.56;;;18.68;57.16
77124;BME280;66079;47.646;19.130;2023-05-29T06:02:28;100393.78;;;18.82;56.40
77124;BME280;66079;47.646;19.130;2023-05-29T06:05:31;100400.72;;;18.98;55.95
77124;BME280;66079;47.646;19.130;2023-05-29T06:08:34;100397.88;;;19.05;54.53
77124;BME280;66079;47.646;19.130;2023-05-29T06:11:37;100392.09;;;19.08;53.49
77124;BME280;66079;47.646;19.130;2023-05-29T06:14:40;100383.97;;;19.19;52.82
77124;BME280;66079;47.646;19.130;2023-05-29T06:17:43;100404.03;;;19.25;52.92
77124;BME280;66079;47.646;19.130;2023-05-29T06:20:45;100419.44;;;19.48;52.96
77124;BME280;66079;47.646;19.130;2023-05-29T06:23:48;100402.34;;;19.61;52.21
77124;BME280;66079;47.646;19.130;2023-05-29T06:26:51;100415.88;;;19.90;51.65
77124;BME280;66079;47.646;19.130;2023-05-29T06:29:54;100415.63;;;20.01;50.73
77124;BME280;66079;47.646;19.130;2023-05-29T06:32:56;100404.84;;;20.13;51.22
77124;BME280;66079;47.646;19.130;2023-05-29T06:36:04;100413.06;;;20.16;50.80
77124;BME280;66079;47.646;19.130;2023-05-29T06:39:09;100419.66;;;20.34;50.20
77124;BME280;66079;47.646;19.130;2023-05-29T06:42:12;100424.41;;;20.47;50.43
77124;BME280;66079;47.646;19.130;2023-05-29T06:45:17;100418.31;;;20.56;49.43
77124;BME280;66079;47.646;19.130;2023-05-29T06:48:20;100419.88;;;20.72;49.41
77124;BME280;66079;47.646;19.130;2023-05-29T06:51:24;100409.84;;;20.84;48.63
77124;BME280;66079;47.646;19.130;2023-05-29T06:54:29;100408.00;;;21.05;48.71
77124;BME280;66079;47.646;19.130;2023-05-29T06:57:32;100403.00;;;20.98;48.70
77124;BME280;66079;47.646;19.130;2023-05-29T07:00:34;100418.53;;;21.10;48.60
77124;BME280;66079;47.646;19.130;2023-05-29T07:03:55;100406.84;;;21.31;47.72
77124;BME280;66079;47.646;19.130;2023-05-29T07:06:58;100397.53;;;21.39;47.43
77124;BME280;66079;47.646;19.130;2023-05-29T07:10:01;100404.38;;;21.45;47.00
77124;BME280;66079;47.646;19.130;2023-05-29T07:13:04;100412.75;;;21.67;46.57
77124;BME280;66079;47.646;19.130;2023-05-29T07:16:08;100403.69;;;21.83;45.64
77124;BME280;66079;47.646;19.130;2023-05-29T07:19:28;100416.94;;;22.21;44.45
77124;BME280;66079;47.646;19.130;2023-05-29T07:22:31;100420.38;;;22.22;44.44
77124;BME280;66079;47.646;19.130;2023-05-29T07:25:34;100419.78;;;22.30;43.53
77124;BME280;66079;47.646;19.130;2023-05-29T07:28:37;100403.19;;;22.48;43.00
77124;BME280;66079;47.646;19.130;2023-05-29T07:31:40;100425.38;;;22.62;44.07
77124;BME280;66079;47.646;19.130;2023-05-29T07:34:43;100404.47;;;22.84;43.19
77124;BME280;66079;47.646;19.130;2023-05-29T07:37:49;100421.72;;;23.10;43.10
77124;BME280;66079;47.646;19.130;2023-05-29T07:40:54;100427.44;;;23.17;42.31
77124;BME280;66079;47.646;19.130;2023-05-29T07:44:08;100426.09;;;23.43;41.73
77124;BME280;66079;47.646;19.130;2023-05-29T07:47:12;100427.31;;;23.56;42.08
77124;BME280;66079;47.646;19.130;2023-05-29T07:53:22;100438.66;;;24.17;41.40
77124;BME280;66079;47.646;19.130;2023-05-29T07:56:25;100439.38;;;24.23;41.09
77124;BME280;66079;47.646;19.130;2023-05-29T07:59:29;100448.44;;;24.54;40.75
77124;BME280;66079;47.646;19.130;2023-05-29T08:02:35;100433.56;;;24.85;39.95
77124;BME280;66079;47.646;19.130;2023-05-29T08:05:57;100449.66;;;25.07;39.68
77124;BME280;66079;47.646;19.130;2023-05-29T08:09:02;100437.75;;;25.18;39.33
77124;BME280;66079;47.646;19.130;2023-05-29T08:12:05;100436.56;;;24.97;38.98
77124;BME280;66079;47.646;19.130;2023-05-29T08:15:08;100451.13;;;25.13;39.45
77124;BME280;66079;47.646;19.130;2023-05-29T08:18:12;100439.59;;;25.18;39.22
77124;BME280;66079;47.646;19.130;2023-05-29T08:21:15;100441.09;;;25.10;39.93
77124;BME280;66079;47.646;19.130;2023-05-29T08:24:17;100434.41;;;24.99;38.71
77124;BME280;66079;47.646;19.130;2023-05-29T08:27:21;100442.78;;;25.33;38.79
77124;BME280;66079;47.646;19.130;2023-05-29T08:30:23;100438.50;;;25.32;38.94
77124;BME280;66079;47.646;19.130;2023-05-29T08:33:26;100435.09;;;25.45;38.84
77124;BME280;66079;47.646;19.130;2023-05-29T08:36:28;100444.66;;;25.60;38.78
77124;BME280;66079;47.646;19.130;2023-05-29T08:39:31;100428.09;;;25.49;39.07
77124;BME280;66079;47.646;19.130;2023-05-29T08:42:36;100426.97;;;25.77;38.91
77124;BME280;66079;47.646;19.130;2023-05-29T08:45:43;100429.75;;;26.08;38.54
77124;BME280;66079;47.646;19.130;2023-05-29T08:48:48;100432.91;;;26.10;38.52
77124;BME280;66079;47.646;19.130;2023-05-29T08:52:06;100406.66;;;25.68;38.33
77124;BME280;66079;47.646;19.130;2023-05-29T08:55:15;100414.50;;;25.86;38.38
77124;BME280;66079;47.646;19.130;2023-05-29T08:58:21;100404.31;;;26.02;37.96
77124;BME280;66079;47.646;19.130;2023-05-29T09:01:25;100416.63;;;26.34;37.63
77124;BME280;66079;47.646;19.130;2023-05-29T09:04:28;100407.09;;;26.41;37.13
77124;BME280;66079;47.646;19.130;2023-05-29T09:07:33;100424.94;;;26.63;36.88
77124;BME280;66079;47.646;19.130;2023-05-29T09:10:36;100422.34;;;26.71;37.50
77124;BME280;66079;47.646;19.130;2023-05-29T09:13:40;100405.72;;;27.13;36.20
77124;BME280;66079;47.646;19.130;2023-05-29T09:16:42;100421.13;;;27.25;35.09
77124;BME280;66079;47.646;19.130;2023-05-29T09:19:47;100420.44;;;27.67;34.58
77124;BME280;66079;47.646;19.130;2023-05-29T09:22:56;100417.47;;;27.60;35.03
77124;BME280;66079;47.646;19.130;2023-05-29T09:26:02;100413.53;;;27.58;33.71
77124;BME280;66079;47.646;19.130;2023-05-29T09:29:05;100417.16;;;27.62;34.11
77124;BME280;66079;47.646;19.130;2023-05-29T09:32:12;100411.50;;;27.80;33.48
77124;BME280;66079;47.646;19.130;2023-05-29T09:35:19;100403.81;;;27.62;33.95
77124;BME280;66079;47.646;19.130;2023-05-29T09:38:21;100398.16;;;27.07;34.29
77124;BME280;66079;47.646;19.130;2023-05-29T09:41:27;100402.84;;;26.93;35.07
77124;BME280;66079;47.646;19.130;2023-05-29T09:44:30;100417.00;;;27.10;35.31
77124;BME280;66079;47.646;19.130;2023-05-29T09:47:33;100414.59;;;27.39;34.53
77124;BME280;66079;47.646;19.130;2023-05-29T09:50:36;100401.47;;;27.60;34.25
77124;BME280;66079;47.646;19.130;2023-05-29T09:53:40;100399.25;;;27.54;34.42
77124;BME280;66079;47.646;19.130;2023-05-29T09:56:45;100397.66;;;27.44;35.29
77124;BME280;66079;47.646;19.130;2023-05-29T09:59:49;100412.13;;;27.52;34.42
77124;BME280;66079;47.646;19.130;2023-05-29T10:02:56;100408.72;;;27.94;34.48
77124;BME280;66079;47.646;19.130;2023-05-29T10:05:59;100407.47;;;27.91;34.69
77124;BME280;66079;47.646;19.130;2023-05-29T10:09:02;100407.63;;;27.95;34.82
77124;BME280;66079;47.646;19.130;2023-05-29T10:12:08;100409.00;;;27.67;35.49
77124;BME280;66079;47.646;19.130;2023-05-29T10:15:14;100408.44;;;26.61;35.97
77124;BME280;66079;47.646;19.130;2023-05-29T10:21:27;100422.88;;;26.60;36.25
77124;BME280;66079;47.646;19.130;2023-05-29T10:24:31;100420.72;;;26.40;39.30
77124;BME280;66079;47.646;19.130;2023-05-29T10:27:34;100408.75;;;25.93;40.07
77124;BME280;66079;47.646;19.130;2023-05-29T10:31:09;100424.63;;;26.86;37.51
77124;BME280;66079;47.646;19.130;2023-05-29T10:34:33;100408.84;;;27.80;36.09
77124;BME280;66079;47.646;19.130;2023-05-29T10:37:47;100411.88;;;28.76;33.60
77124;BME280;66079;47.646;19.130;2023-05-29T10:40:52;100405.56;;;28.81;34.27
77124;BME280;66079;47.646;19.130;2023-05-29T10:44:02;100400.81;;;28.95;33.63
77124;BME280;66079;47.646;19.130;2023-05-29T10:47:05;100388.28;;;29.16;33.25
77124;BME280;66079;47.646;19.130;2023-05-29T10:50:09;100397.72;;;30.04;31.54
77124;BME280;66079;47.646;19.130;2023-05-29T10:53:16;100412.84;;;31.34;29.86
77124;BME280;66079;47.646;19.130;2023-05-29T10:56:23;100399.06;;;29.77;32.05
77124;BME280;66079;47.646;19.130;2023-05-29T10:59:35;100389.03;;;27.81;35.65
77124;BME280;66079;47.646;19.130;2023-05-29T11:02:39;100393.75;;;27.76;36.05
77124;BME280;66079;47.646;19.130;2023-05-29T11:09:02;100387.97;;;27.99;36.02
77124;BME280;66079;47.646;19.130;2023-05-29T11:12:23;100383.22;;;28.13;35.72
77124;BME280;66079;47.646;19.130;2023-05-29T11:15:38;100393.69;;;28.52;34.47
77124;BME280;66079;47.646;19.130;2023-05-29T11:18:45;100403.03;;;27.78;36.26
77124;BME280;66079;47.646;19.130;2023-05-29T11:21:53;100395.66;;;28.01;36.87
77124;BME280;66079;47.646;19.130;2023-05-29T11:25:00;100403.53;;;28.06;36.98
77124;BME280;66079;47.646;19.130;2023-05-29T11:28:04;100404.78;;;29.47;34.31
77124;BME280;66079;47.646;19.130;2023-05-29T11:31:12;100395.91;;;29.55;33.76
77124;BME280;66079;47.646;19.130;2023-05-29T11:34:14;100396.25;;;28.49;35.52
77124;BME280;66079;47.646;19.130;2023-05-29T11:37:17;100388.13;;;28.03;36.69
77124;BME280;66079;47.646;19.130;2023-05-29T11:40:20;100387.38;;;28.65;35.55
77124;BME280;66079;47.646;19.130;2023-05-29T11:43:24;100385.00;;;29.80;33.83
77124;BME280;66079;47.646;19.130;2023-05-29T11:46:27;100370.69;;;28.68;34.64
77124;BME280;66079;47.646;19.130;2023-05-29T11:49:36;100372.81;;;28.84;34.67
77124;BME280;66079;47.646;19.130;2023-05-29T11:52:46;100377.28;;;28.71;34.81
77124;BME280;66079;47.646;19.130;2023-05-29T11:55:49;100370.56;;;30.83;31.50
77124;BME280;66079;47.646;19.130;2023-05-29T11:58:54;100378.19;;;33.90;27.22
77124;BME280;66079;47.646;19.130;2023-05-29T12:02:02;100371.06;;;35.73;24.58
77124;BME280;66079;47.646;19.130;2023-05-29T12:05:05;100357.41;;;35.33;24.16
77124;BME280;66079;47.646;19.130;2023-05-29T12:08:10;100352.47;;;36.42;23.22
77124;BME280;66079;47.646;19.130;2023-05-29T12:11:12;100354.03;;;36.97;22.18
77124;BME280;66079;47.646;19.130;2023-05-29T12:14:15;100348.91;;;37.50;22.13
77124;BME280;66079;47.646;19.130;2023-05-29T12:17:18;100355.59;;;36.07;23.31
77124;BME280;66079;47.646;19.130;2023-05-29T12:20:23;100349.31;;;37.52;21.43
77124;BME280;66079;47.646;19.130;2023-05-29T12:23:28;100343.91;;;36.83;21.77
77124;BME280;66079;47.646;19.130;2023-05-29T12:26:32;100345.41;;;37.49;21.47
77124;BME280;66079;47.646;19.130;2023-05-29T12:29:35;100334.38;;;38.70;19.68
77124;BME280;66079;47.646;19.130;2023-05-29T12:32:39;100334.38;;;38.60;19.89
77124;BME280;66079;47.646;19.130;2023-05-29T12:35:46;100342.53;;;38.45;19.77
77124;BME280;66079;47.646;19.130;2023-05-29T12:38:50;100333.78;;;39.45;18.81
77124;BME280;66079;47.646;19.130;2023-05-29T12:41:54;100337.50;;;38.72;19.15
77124;BME280;66079;47.646;19.130;2023-05-29T12:44:56;100334.63;;;40.04;17.98
77124;BME280;66079;47.646;19.130;2023-05-29T12:48:06;100326.38;;;40.15;17.40
77124;BME280;66079;47.646;19.130;2023-05-29T12:51:09;100328.50;;;39.86;17.15
77124;BME280;66079;47.646;19.130;2023-05-29T12:54:13;100323.97;;;40.24;17.49
77124;BME280;66079;47.646;19.130;2023-05-29T12:57:16;100330.88;;;37.10;19.48
77124;BME280;66079;47.646;19.130;2023-05-29T13:00:18;100325.06;;;38.36;18.75
77124;BME280;66079;47.646;19.130;2023-05-29T13:03:22;100322.47;;;37.25;19.82
77124;BME280;66079;47.646;19.130;2023-05-29T13:06:28;100316.47;;;35.64;21.63
77124;BME280;66079;47.646;19.130;2023-05-29T13:09:30;100314.06;;;35.56;21.97
77124;BME280;66079;47.646;19.130;2023-05-29T13:12:34;100316.88;;;38.04;19.61
77124;BME280;66079;47.646;19.130;2023-05-29T13:15:37;100322.16;;;39.38;17.88
77124;BME280;66079;47.646;19.130;2023-05-29T13:18:42;100308.09;;;39.50;17.39
77124;BME280;66079;47.646;19.130;2023-05-29T13:21:44;100316.16;;;40.73;16.93
77124;BME280;66079;47.646;19.130;2023-05-29T13:24:50;100311.38;;;41.75;15.41
77124;BME280;66079;47.646;19.130;2023-05-29T13:27:53;100305.00;;;39.48;17.25
77124;BME280;66079;47.646;19.130;2023-05-29T13:30:55;100300.28;;;39.62;17.49
77124;BME280;66079;47.646;19.130;2023-05-29T13:33:58;100296.31;;;38.03;20.07
77124;BME280;66079;47.646;19.130;2023-05-29T13:37:00;100301.84;;;34.80;23.50
77124;BME280;66079;47.646;19.130;2023-05-29T13:40:05;100300.28;;;33.66;24.52
77124;BME280;66079;47.646;19.130;2023-05-29T13:43:09;100293.09;;;32.97;25.77
77124;BME280;66079;47.646;19.130;2023-05-29T13:46:12;100288.34;;;32.44;26.67
77124;BME280;66079;47.646;19.130;2023-05-29T13:49:15;100288.31;;;32.28;26.05
77124;BME280;66079;47.646;19.130;2023-05-29T13:52:17;100282.09;;;31.66;27.37
77124;BME280;66079;47.646;19.130;2023-05-29T13:55:20;100284.53;;;30.79;29.81
77124;BME280;66079;47.646;19.130;2023-05-29T13:58:23;100279.66;;;33.01;25.96
77124;BME280;66079;47.646;19.130;2023-05-29T14:01:25;100293.38;;;31.99;27.37
77124;BME280;66079;47.646;19.130;2023-05-29T14:04:31;100287.47;;;32.40;27.52
77124;BME280;66079;47.646;19.130;2023-05-29T14:07:34;100292.59;;;31.71;27.16
77124;BME280;66079;47.646;19.130;2023-05-29T14:10:36;100290.84;;;31.23;26.78
77124;BME280;66079;47.646;19.130;2023-05-29T14:13:39;100294.69;;;30.86;28.17
77124;BME280;66079;47.646;19.130;2023-05-29T14:16:41;100290.22;;;31.42;27.29
77124;BME280;66079;47.646;19.130;2023-05-29T14:19:45;100290.16;;;34.24;22.86
77124;BME280;66079;47.646;19.130;2023-05-29T14:22:49;100270.75;;;33.16;23.67
77124;BME280;66079;47.646;19.130;2023-05-29T14:25:52;100283.53;;;31.36;26.83
77124;BME280;66079;47.646;19.130;2023-05-29T14:28:55;100274.66;;;29.58;30.79
77124;BME280;66079;47.646;19.130;2023-05-29T14:32:14;100280.66;;;28.64;32.65
77124;BME280;66079;47.646;19.130;2023-05-29T14:35:16;100282.78;;;27.95;34.71
77124;BME280;66079;47.646;19.130;2023-05-29T14:38:19;100275.94;;;27.52;35.94
77124;BME280;66079;47.646;19.130;2023-05-29T14:41:22;100285.03;;;27.33;36.93
77124;BME280;66079;47.646;19.130;2023-05-29T14:44:26;100293.16;;;27.20;36.48
77124;BME280;66079;47.646;19.130;2023-05-29T14:47:29;100279.91;;;26.81;35.96
77124;BME280;66079;47.646;19.130;2023-05-29T14:50:31;100276.97;;;26.52;36.59
77124;BME280;66079;47.646;19.130;2023-05-29T14:53:35;100286.03;;;26.73;35.86
77124;BME280;66079;47.646;19.130;2023-05-29T14:56:37;100274.72;;;26.37;36.48
77124;BME280;66079;47.646;19.130;2023-05-29T14:59:40;100280.16;;;26.23;35.60
77124;BME280;66079;47.646;19.130;2023-05-29T15:02:42;100274.72;;;26.37;34.38
77124;BME280;66079;47.646;19.130;2023-05-29T15:05:45;100277.13;;;26.47;33.67
77124;BME280;66079;47.646;19.130;2023-05-29T15:08:48;100275.66;;;26.41;32.36
77124;BME280;66079;47.646;19.130;2023-05-29T15:11:53;100279.69;;;25.99;35.38
77124;BME280;66079;47.646;19.130;2023-05-29T15:14:56;100282.44;;;26.07;35.43
77124;BME280;66079;47.646;19.130;2023-05-29T15:17:58;100269.47;;;26.23;34.74
77124;BME280;66079;47.646;19.130;2023-05-29T15:21:01;100272.81;;;26.29;34.09
77124;BME280;66079;47.646;19.130;2023-05-29T15:24:05;100260.25;;;26.29;35.52
77124;BME280;66079;47.646;19.130;2023-05-29T15:27:08;100280.28;;;26.18;36.35
77124;BME280;66079;47.646;19.130;2023-05-29T15:30:15;100264.69;;;26.34;36.02
77124;BME280;66079;47.646;19.130;2023-05-29T15:33:19;100278.41;;;25.96;37.47
77124;BME280;66079;47.646;19.130;2023-05-29T15:36:21;100267.22;;;26.47;37.32
77124;BME280;66079;47.646;19.130;2023-05-29T15:39:24;100278.28;;;27.70;34.96
77124;BME280;66079;47.646;19.130;2023-05-29T15:42:28;100285.66;;;29.65;32.15
77124;BME280;66079;47.646;19.130;2023-05-29T15:45:30;100279.16;;;30.91;29.91
77124;BME280;66079;47.646;19.130;2023-05-29T15:48:33;100285.38;;;32.33;26.82
77124;BME280;66079;47.646;19.130;2023-05-29T15:51:35;100270.53;;;33.05;25.35
77124;BME280;66079;47.646;19.130;2023-05-29T15:54:43;100277.03;;;33.81;24.39
77124;BME280;66079;47.646;19.130;2023-05-29T15:57:46;100279.56;;;34.60;22.73
77124;BME280;66079;47.646;19.130;2023-05-29T16:00:49;100290.31;;;34.34;23.50
77124;BME280;66079;47.646;19.130;2023-05-29T16:03:52;100281.94;;;34.17;22.94
77124;BME280;66079;47.646;19.130;2023-05-29T16:06:55;100282.84;;;34.73;22.60
77124;BME280;66079;47.646;19.130;2023-05-29T16:09:57;100276.88;;;34.38;22.69
77124;BME280;66079;47.646;19.130;2023-05-29T16:13:00;100276.25;;;34.44;23.05